Terminal Aerodrome Forecast
Issued by NWS

Home | Current Version | Previous Version | Text Only | Print | Product List | Glossary On
Versions: 1 2 3 4 5 6 7 8 9 10 11 12 13 14 15
000
FTUS46 KPDT 291100
TAFDLS
TAF
KDLS 291138Z 2912/3012 29005KT P6SM SCT100 BKN120
     FM292000 32012KT P6SM FEW100 SCT120
     FM300600 30004KT P6SM SCT120=

USA.gov is the U.S. government's official web portal to all federal, state and local government web resources and services.